createdAt,value
2016-01-27T08:14:41.467Z,99.98
2016-01-27T08:14:57.439Z,99.79
2016-01-27T08:15:16.955Z,99.79
2016-01-27T08:15:33.033Z,99.99
2016-01-27T08:15:49.191Z,99.99
2016-01-27T08:16:05.644Z,99.99
2016-01-27T08:16:57.131Z,99.99
2016-01-27T08:17:14.835Z,99.6
2016-01-27T08:17:31.398Z,99.7
2016-01-27T08:18:06.212Z,99.99
2016-01-27T08:18:23.947Z,99.99
2016-01-27T08:18:54.653Z,99.41
2016-01-27T08:19:09.497Z,99.88
2016-01-27T08:19:25.512Z,99.7
2016-01-27T08:19:42.840Z,99.7
2016-01-27T08:20:00.375Z,99.88
2016-01-27T08:20:17.656Z,99.6
2016-01-27T08:20:35.718Z,99.6
2016-01-27T08:20:55.065Z,99.41
2016-01-27T08:21:17.163Z,99.6
2016-01-27T08:21:48.149Z,99.7
2016-01-27T08:22:05.009Z,99.7
2016-01-27T08:22:36.275Z,99.88
2016-01-27T08:22:53.263Z,99.79
2016-01-27T08:23:09.044Z,99.99
2016-01-27T08:23:25.247Z,99.99
2016-01-27T08:23:41.497Z,99.99
2016-01-27T08:24:13.562Z,99.99
2016-01-27T08:24:29.016Z,99.99
2016-01-27T08:24:44.578Z,99.99
2016-01-27T08:25:00.955Z,99.99
2016-01-27T08:25:17.486Z,99.7
2016-01-27T08:25:32.158Z,99.99
2016-01-27T08:25:49.786Z,99.99
2016-01-27T08:26:08.567Z,99.99
2016-01-27T08:26:28.786Z,99.99
2016-01-27T08:26:43.521Z,99.99
2016-01-27T08:27:01.710Z,99.99
2016-01-27T08:27:17.069Z,99.99
2016-01-27T08:27:46.964Z,99.79
2016-01-27T08:28:17.370Z,99.99
2016-01-27T08:28:38.886Z,99.51
2016-01-27T08:29:09.622Z,99.51
2016-01-27T08:29:24.263Z,99.51
2016-01-27T08:29:41.482Z,99.6
2016-01-27T08:29:56.999Z,98.94
2016-01-27T08:30:25.909Z,99.13
2016-01-27T08:30:42.190Z,99.13
2016-01-27T08:31:00.443Z,99.13
2016-01-27T08:31:18.912Z,99.13
2016-01-27T08:31:48.399Z,99.13
2016-01-27T08:32:06.199Z,99.13
2016-01-27T08:32:23.761Z,98.57
2016-01-27T08:32:40.933Z,98.85
2016-01-27T08:32:58.639Z,98.85
2016-01-27T08:33:16.077Z,98.57
2016-01-27T08:33:37.749Z,98.19
2016-01-27T08:34:09.141Z,98.28
2016-01-27T08:34:25.829Z,98.47
2016-01-27T08:34:58.472Z,98.75
2016-01-27T08:35:15.472Z,98.85
2016-01-27T08:35:33.035Z,99.22
2016-01-27T08:35:54.178Z,99.22
2016-01-27T08:36:29.178Z,99.04
2016-01-27T08:36:45.975Z,99.13
2016-01-27T08:37:01.727Z,99.13
2016-01-27T08:37:18.555Z,99.13
2016-01-27T08:37:35.962Z,99.51
2016-01-27T08:37:52.106Z,99.51
2016-01-27T08:38:44.794Z,99.32
2016-01-27T08:39:00.687Z,99.51
2016-01-27T08:39:18.578Z,99.32
2016-01-27T08:39:35.191Z,99.79
2016-01-27T08:40:06.351Z,99.6
2016-01-27T08:40:24.351Z,99.99
2016-01-27T08:40:40.913Z,99.99
2016-01-27T08:41:00.134Z,99.98
2016-01-27T08:41:46.917Z,99.99
2016-01-27T08:42:02.980Z,99.99
2016-01-27T08:42:33.136Z,99.99
2016-01-27T08:42:48.265Z,99.99
2016-01-27T08:43:04.296Z,99.99
2016-01-27T08:43:20.171Z,99.99
2016-01-27T08:43:36.593Z,99.99
2016-01-27T08:43:53.346Z,99.99
2016-01-27T08:44:13.346Z,99.79
2016-01-27T08:44:30.487Z,99.99
2016-01-27T08:45:14.333Z,99.6
2016-01-27T08:45:43.661Z,99.6
2016-01-27T08:46:02.132Z,99.51
2016-01-27T08:46:31.695Z,99.99
2016-01-27T08:47:01.729Z,99.99
2016-01-27T08:47:21.354Z,99.99
2016-01-27T08:47:37.557Z,99.98
2016-01-27T08:47:52.982Z,99.98
2016-01-27T08:48:22.466Z,99.99
2016-01-27T08:48:43.097Z,99.99
2016-01-27T08:49:13.646Z,99.98
2016-01-27T08:49:30.052Z,99.79
2016-01-27T08:49:45.724Z,99.6
2016-01-27T08:50:02.133Z,99.88
2016-01-27T08:50:20.977Z,99.98
2016-01-27T08:50:42.930Z,99.98
2016-01-27T08:51:02.715Z,99.88
2016-01-27T08:51:25.261Z,99.22
2016-01-27T08:51:42.590Z,99.7
2016-01-27T08:52:12.561Z,99.79
2016-01-27T08:52:28.984Z,99.41
2016-01-27T08:52:45.625Z,99.7
2016-01-27T08:53:02.892Z,99.88
2016-01-27T08:53:22.455Z,99.7
2016-01-27T08:53:38.205Z,99.51
2016-01-27T08:53:56.083Z,99.88
2016-01-27T08:54:25.333Z,99.98
2016-01-27T08:54:42.599Z,99.88
2016-01-27T08:54:59.305Z,99.7
2016-01-27T08:55:15.242Z,99.99
2016-01-27T08:55:36.773Z,99.6
2016-01-27T08:55:57.026Z,99.79
2016-01-27T08:56:13.218Z,99.6
2016-01-27T08:56:30.577Z,99.99
2016-01-27T08:56:45.921Z,99.98
2016-01-27T08:57:08.407Z,99.88
2016-01-27T08:57:25.751Z,99.7
2016-01-27T08:57:44.704Z,99.6
2016-01-27T08:58:09.707Z,99.6
2016-01-27T08:58:27.348Z,99.6
2016-01-27T08:58:43.801Z,99.7
2016-01-27T08:58:59.710Z,99.88
2016-01-27T08:59:18.163Z,99.6
2016-01-27T09:00:06.307Z,99.41
2016-01-27T09:00:21.698Z,99.6
2016-01-27T09:00:51.169Z,99.7
2016-01-27T09:01:08.185Z,99.6
2016-01-27T09:01:24.357Z,99.6
2016-01-27T09:01:46.154Z,99.6
2016-01-27T09:02:05.343Z,99.88
2016-01-27T09:02:35.343Z,99.51
2016-01-27T09:02:53.690Z,99.99
2016-01-27T09:03:14.581Z,99.99
2016-01-27T09:03:31.849Z,99.99
2016-01-27T09:04:15.102Z,99.99
2016-01-27T09:04:32.430Z,99.99
2016-01-27T09:04:49.448Z,99.99
2016-01-27T09:05:37.963Z,99.79
2016-01-27T09:05:54.545Z,99.51
2016-01-27T09:06:20.076Z,99.99
2016-01-27T09:06:36.748Z,99.99
2016-01-27T09:07:20.720Z,99.7
2016-01-27T09:07:39.752Z,99.98
2016-01-27T09:09:13.241Z,99.99
2016-01-27T09:09:29.100Z,99.99
2016-01-27T09:09:51.713Z,99.51
2016-01-27T09:10:07.900Z,99.7
2016-01-27T09:10:23.744Z,99.51
2016-01-27T09:11:11.297Z,99.13
2016-01-27T09:11:28.797Z,99.13
2016-01-27T09:11:46.188Z,99.04
2016-01-27T09:12:02.487Z,99.04
2016-01-27T09:12:18.753Z,99.13
2016-01-27T09:12:49.428Z,99.32
2016-01-27T09:13:20.444Z,98.85
2016-01-27T09:13:37.710Z,99.32
2016-01-27T09:13:53.962Z,98.66
2016-01-27T09:14:10.290Z,99.32
2016-01-27T09:14:26.213Z,99.04
2016-01-27T09:14:46.276Z,98.85
2016-01-27T09:15:06.622Z,99.04
2016-01-27T09:15:57.702Z,99.98
2016-01-27T09:16:18.515Z,99.13
2016-01-27T09:16:33.999Z,99.13
2016-01-27T09:16:50.018Z,98.47
2016-01-27T09:17:21.955Z,98.28
2016-01-27T09:17:41.440Z,98.47
2016-01-27T09:18:29.695Z,97.72
2016-01-27T09:18:44.960Z,97.43
2016-01-27T09:19:02.838Z,97.24
2016-01-27T09:19:18.328Z,97.34
2016-01-27T09:19:35.531Z,96.11
2016-01-27T09:19:55.128Z,95.92
2016-01-27T09:20:11.971Z,96.01
2016-01-27T09:20:33.253Z,95.64
2016-01-27T09:20:49.084Z,94.98
2016-01-27T09:21:05.818Z,94.51
2016-01-27T09:21:20.927Z,94.51
2016-01-27T09:21:38.740Z,94.51
2016-01-27T09:21:55.213Z,94.41
2016-01-27T09:22:09.697Z,94.51
2016-01-27T09:22:23.400Z,94.32
2016-01-27T09:22:52.536Z,94.89
2016-01-27T09:23:42.834Z,96.11
2016-01-27T09:23:59.665Z,96.01
2016-01-27T09:24:15.149Z,96.2
2016-01-27T09:24:33.102Z,96.58
2016-01-27T09:24:49.042Z,97.05
2016-01-27T09:25:08.042Z,97.53
2016-01-27T09:25:26.248Z,97.91
2016-01-27T09:25:45.560Z,98.28
2016-01-27T09:26:03.704Z,98.47
2016-01-27T09:26:18.938Z,98.75
2016-01-27T09:26:36.063Z,98.28
2016-01-27T09:26:50.660Z,98
2016-01-27T09:27:15.520Z,98.28
2016-01-27T09:27:31.441Z,98.1
2016-01-27T09:28:19.584Z,98.28
2016-01-27T09:28:50.775Z,98.38
2016-01-27T09:29:08.229Z,98
2016-01-27T09:29:23.776Z,97.81
2016-01-27T09:29:38.010Z,97.62
2016-01-27T09:29:57.404Z,97.53
2016-01-27T09:30:17.185Z,97.91
2016-01-27T09:30:47.419Z,98.19
2016-01-27T09:31:05.172Z,97.81
2016-01-27T09:31:20.360Z,97.91
2016-01-27T09:31:49.690Z,98.57
2016-01-27T09:32:06.674Z,98.66
2016-01-27T09:32:22.409Z,98.47
2016-01-27T09:32:38.580Z,98.38
2016-01-27T09:32:54.211Z,98.47
2016-01-27T09:33:12.852Z,98.47
2016-01-27T09:33:41.727Z,98.66
2016-01-27T09:33:56.214Z,98.57
2016-01-27T09:34:26.042Z,98.75
2016-01-27T09:34:45.417Z,98.85
2016-01-27T09:35:01.482Z,98.75
2016-01-27T09:35:19.013Z,98.38
2016-01-27T09:35:33.544Z,98.38
2016-01-27T09:35:48.919Z,98.47
2016-01-27T09:36:11.047Z,98.38
2016-01-27T09:36:26.829Z,98.85
2016-01-27T09:36:42.033Z,99.13
2016-01-27T09:37:06.660Z,98.57
2016-01-27T09:37:21.675Z,98.85
2016-01-27T09:37:40.707Z,98.57
2016-01-27T09:37:56.867Z,98.66
2016-01-27T09:38:26.476Z,99.04
2016-01-27T09:38:56.525Z,99.22
2016-01-27T09:39:11.822Z,99.13
2016-01-27T09:39:26.619Z,99.32
2016-01-27T09:39:42.760Z,99.04
2016-01-27T09:39:57.513Z,99.13
2016-01-27T09:40:14.622Z,98.94
2016-01-27T09:40:47.247Z,99.13
2016-01-27T09:41:07.140Z,99.13
2016-01-27T09:41:23.140Z,99.22
2016-01-27T09:41:38.452Z,98.94
2016-01-27T09:42:10.691Z,98.47
2016-01-27T09:42:27.848Z,98.28
2016-01-27T09:42:57.319Z,98.57
2016-01-27T09:43:13.101Z,98.57
2016-01-27T09:43:32.116Z,98.85
2016-01-27T09:44:02.981Z,98.47
2016-01-27T09:44:52.516Z,98.85
2016-01-27T09:45:11.016Z,98.57
2016-01-27T09:45:41.422Z,99.04
2016-01-27T09:45:57.893Z,98.94
2016-01-27T09:46:41.315Z,98.47
2016-01-27T09:46:59.271Z,98.85
2016-01-27T09:47:15.615Z,98.94
2016-01-27T09:47:31.880Z,98.75
2016-01-27T09:48:01.277Z,98.57
2016-01-27T09:48:18.261Z,98.75
2016-01-27T09:48:34.964Z,98.28
2016-01-27T09:48:52.217Z,98.28
2016-01-27T09:49:15.577Z,98.57
2016-01-27T09:49:45.373Z,98.1
2016-01-27T09:50:01.080Z,97.91
2016-01-27T09:50:23.314Z,98
2016-01-27T09:51:10.192Z,97.91
2016-01-27T09:51:27.426Z,97.53
2016-01-27T09:51:45.536Z,97.53
2016-01-27T09:52:00.991Z,97.34
2016-01-27T09:52:48.100Z,97.15
2016-01-27T09:53:03.759Z,97.15
2016-01-27T09:53:25.088Z,97.15
2016-01-27T09:53:40.916Z,97.15
2016-01-27T09:53:55.668Z,97.34
2016-01-27T09:54:14.286Z,97.34
2016-01-27T09:54:28.552Z,97.05
2016-01-27T09:54:45.505Z,97.24
2016-01-27T09:54:59.776Z,97.24
2016-01-27T09:55:13.745Z,97.24
2016-01-27T09:55:27.886Z,97.43
2016-01-27T09:55:42.011Z,97.34
2016-01-27T09:55:56.326Z,97.34
2016-01-27T09:56:40.076Z,97.43
2016-01-27T09:57:22.626Z,97.53
2016-01-27T09:57:36.407Z,97.43
2016-01-27T09:57:50.235Z,97.15
2016-01-27T09:58:04.362Z,97.24
2016-01-27T09:58:18.190Z,96.96
2016-01-27T09:58:32.050Z,97.05
2016-01-27T09:58:46.081Z,97.53
2016-01-27T09:58:59.881Z,97.15
2016-01-27T09:59:13.725Z,96.86
2016-01-27T09:59:28.053Z,97.24
2016-01-27T09:59:42.209Z,97.24
2016-01-27T09:59:56.930Z,97.15
2016-01-27T10:00:10.961Z,97.24
2016-01-27T10:00:25.289Z,97.53
2016-01-27T10:00:38.854Z,97.05
2016-01-27T10:00:53.201Z,97.15
2016-01-27T10:01:07.170Z,97.24
2016-01-27T10:01:20.967Z,97.15
2016-01-27T10:01:48.748Z,97.34
2016-01-27T10:02:02.891Z,97.53
2016-01-27T10:02:16.297Z,97.34
2016-01-27T10:02:39.860Z,97.05
2016-01-27T10:02:53.830Z,96.49
2016-01-27T10:03:07.940Z,96.58
2016-01-27T10:03:21.877Z,96.3
2016-01-27T10:03:50.221Z,95.83
2016-01-27T10:04:04.693Z,95.92
2016-01-27T10:04:18.850Z,96.01
2016-01-27T10:04:33.038Z,95.92
2016-01-27T10:04:47.241Z,96.01
2016-01-27T10:05:01.697Z,96.01
2016-01-27T10:05:15.572Z,96.01
2016-01-27T10:05:29.728Z,95.92
2016-01-27T10:05:43.666Z,96.01
2016-01-27T10:05:57.700Z,96.11
2016-01-27T10:06:10.012Z,96.2
2016-01-27T10:06:23.919Z,95.92
2016-01-27T10:06:37.809Z,95.83
2016-01-27T10:06:52.202Z,95.36
2016-01-27T10:07:06.108Z,95.45
2016-01-27T10:07:20.311Z,95.26
2016-01-27T10:07:34.233Z,95.17
2016-01-27T10:07:48.030Z,95.36
2016-01-27T10:08:01.819Z,95.26
2016-01-27T10:08:16.178Z,95.36
2016-01-27T10:08:30.632Z,95.36
2016-01-27T10:08:44.538Z,95.26
2016-01-27T10:08:58.493Z,95.26
2016-01-27T10:09:12.430Z,95.26
2016-01-27T10:09:26.805Z,95.36
2016-01-27T10:09:55.044Z,96.2
2016-01-27T10:10:08.716Z,95.92
2016-01-27T10:10:22.856Z,95.36
2016-01-27T10:10:36.809Z,95.45
2016-01-27T10:10:50.700Z,95.36
2016-01-27T10:11:04.765Z,95.92
2016-01-27T10:11:18.593Z,95.64
2016-01-27T10:11:32.312Z,95.54
2016-01-27T10:11:46.453Z,95.83
2016-01-27T10:12:00.581Z,95.73
2016-01-27T10:12:14.784Z,95.73
2016-01-27T10:12:28.347Z,95.92
2016-01-27T10:12:42.284Z,95.36
2016-01-27T10:12:55.881Z,95.64
2016-01-27T10:13:37.678Z,96.2
2016-01-27T10:13:51.490Z,95.83
2016-01-27T10:14:05.899Z,96.2
2016-01-27T10:14:20.758Z,96.11
2016-01-27T10:14:34.945Z,95.92
2016-01-27T10:14:49.820Z,95.83
2016-01-27T10:15:04.292Z,95.92
2016-01-27T10:15:32.309Z,96.49
2016-01-27T10:15:46.356Z,96.68
2016-01-27T10:16:00.155Z,96.58
2016-01-27T10:16:14.421Z,96.49
2016-01-27T10:16:28.780Z,96.49
2016-01-27T10:16:42.921Z,96.58
2016-01-27T10:16:57.049Z,96.39
2016-01-27T10:17:11.237Z,95.92
2016-01-27T10:17:25.205Z,96.01
2016-01-27T10:17:39.112Z,96.2
2016-01-27T10:17:53.504Z,95.64
2016-01-27T10:18:07.426Z,95.83
2016-01-27T10:18:35.817Z,95.54
2016-01-27T10:18:50.020Z,96.01
2016-01-27T10:19:04.460Z,96.01
2016-01-27T10:19:18.460Z,95.54
2016-01-27T10:19:32.476Z,95.83
2016-01-27T10:20:00.604Z,95.45
2016-01-27T10:20:14.557Z,95.83
2016-01-27T10:20:42.510Z,95.64
2016-01-27T10:20:56.624Z,95.73
2016-01-27T10:21:10.733Z,95.83
2016-01-27T10:21:38.702Z,95.26
2016-01-27T10:21:52.813Z,95.17
2016-01-27T10:22:07.063Z,94.98
2016-01-27T10:22:20.657Z,94.98
2016-01-27T10:22:34.344Z,94.89
2016-01-27T10:22:48.252Z,95.07
2016-01-27T10:23:02.097Z,95.07
2016-01-27T10:23:16.285Z,95.54
2016-01-27T10:23:30.285Z,95.36
2016-01-27T10:23:44.300Z,95.36
2016-01-27T10:23:57.366Z,95.83
2016-01-27T10:24:11.194Z,96.01
2016-01-27T10:24:25.147Z,95.73
2016-01-27T10:24:39.491Z,95.73
2016-01-27T10:24:53.431Z,95.83
2016-01-27T10:25:07.494Z,95.64
2016-01-27T10:25:21.262Z,95.54
2016-01-27T10:25:52.074Z,95.83
2016-01-27T10:26:20.174Z,95.36
2016-01-27T10:26:34.252Z,95.17
2016-01-27T10:26:47.939Z,95.17
2016-01-27T10:27:01.785Z,95.36
2016-01-27T10:27:15.973Z,95.54
2016-01-27T10:27:30.269Z,95.54
2016-01-27T10:27:44.129Z,95.36
2016-01-27T10:28:01.366Z,95.54
2016-01-27T10:28:18.663Z,94.98
2016-01-27T10:28:32.522Z,95.17
2016-01-27T10:28:47.054Z,95.07
2016-01-27T10:29:01.166Z,95.36
2016-01-27T10:29:15.244Z,95.07
2016-01-27T10:29:29.525Z,95.17
2016-01-27T10:29:43.291Z,95.17
2016-01-27T10:29:57.418Z,94.98
2016-01-27T10:30:28.404Z,94.79
2016-01-27T10:30:42.701Z,94.51
2016-01-27T10:30:56.876Z,94.32
2016-01-27T10:31:10.845Z,94.51
2016-01-27T10:31:24.845Z,94.51
2016-01-27T10:31:38.798Z,94.22
2016-01-27T10:31:53.004Z,93.56
2016-01-27T10:32:06.770Z,93.75
2016-01-27T10:32:20.582Z,94.03
2016-01-27T10:32:34.551Z,93.94
2016-01-27T10:32:48.551Z,93.75
2016-01-27T10:33:02.570Z,93.84
2016-01-27T10:33:16.632Z,93.84
2016-01-27T10:33:30.867Z,93.84
2016-01-27T10:33:44.698Z,93.94
2016-01-27T10:33:58.621Z,94.13
2016-01-27T10:34:12.606Z,93.66
2016-01-27T10:34:29.684Z,93.94
2016-01-27T10:34:43.762Z,93.75
2016-01-27T10:34:57.748Z,93.56
2016-01-27T10:35:11.936Z,93.47
2016-01-27T10:35:40.248Z,93.28
2016-01-27T10:35:54.502Z,93.56
2016-01-27T10:36:08.393Z,93.18
2016-01-27T10:36:22.377Z,93.28
2016-01-27T10:36:36.534Z,93.28
2016-01-27T10:36:50.502Z,93.28
2016-01-27T10:37:04.426Z,93.47
2016-01-27T10:37:17.879Z,93.28
2016-01-27T10:37:31.961Z,93.37
2016-01-27T10:37:46.211Z,92.99
2016-01-27T10:38:00.120Z,92.9
2016-01-27T10:38:14.167Z,92.14
2016-01-27T10:38:28.135Z,92.05
2016-01-27T10:38:45.057Z,91.58
2016-01-27T10:39:00.059Z,91.77
2016-01-27T10:39:14.262Z,91.39
2016-01-27T10:39:28.075Z,91.39
2016-01-27T10:39:41.825Z,91.3
2016-01-27T10:39:55.922Z,91.49
2016-01-27T10:40:10.484Z,91.58
2016-01-27T10:40:24.328Z,91.2
2016-01-27T10:40:38.359Z,91.39
2016-01-27T10:40:52.469Z,91.2
2016-01-27T10:41:09.519Z,91.11
2016-01-27T10:41:24.129Z,91.39
2016-01-27T10:41:38.066Z,90.73
2016-01-27T10:41:55.349Z,90.92
2016-01-27T10:42:09.146Z,90.64
2016-01-27T10:42:22.803Z,90.26
2016-01-27T10:42:36.756Z,90.73
2016-01-27T10:42:51.381Z,90.16
2016-01-27T10:43:05.540Z,89.97
2016-01-27T10:43:20.118Z,89.5
2016-01-27T10:43:34.665Z,89.5
2016-01-27T10:43:48.634Z,89.5
2016-01-27T10:44:02.512Z,89.59
2016-01-27T10:44:16.699Z,89.22
2016-01-27T10:44:30.637Z,90.26
2016-01-27T10:44:44.795Z,89.88
2016-01-27T10:44:58.970Z,89.97
2016-01-27T10:45:13.095Z,89.97
2016-01-27T10:45:27.173Z,90.16
2016-01-27T10:45:41.204Z,89.97
2016-01-27T10:45:55.112Z,89.78
2016-01-27T10:46:09.425Z,89.4
2016-01-27T10:46:23.644Z,89.78
2016-01-27T10:46:37.972Z,89.97
2016-01-27T10:46:51.894Z,89.97
2016-01-27T10:47:06.085Z,89.97
2016-01-27T10:47:19.913Z,89.31
2016-01-27T10:47:33.929Z,89.97
2016-01-27T10:47:48.351Z,89.69
2016-01-27T10:48:02.400Z,90.16
2016-01-27T10:48:16.868Z,90.45
2016-01-27T10:48:30.823Z,89.59
2016-01-27T10:48:44.854Z,89.78
2016-01-27T10:48:58.810Z,89.97
2016-01-27T10:49:12.763Z,89.97
2016-01-27T10:49:27.154Z,89.97
2016-01-27T10:50:37.093Z,88.65
2016-01-27T10:50:51.234Z,88.28
2016-01-27T10:51:05.861Z,88.37
2016-01-27T10:51:20.001Z,88.18
2016-01-27T10:51:33.939Z,88.09
2016-01-27T10:51:48.595Z,88.37
2016-01-27T10:52:02.755Z,88.65
2016-01-27T10:52:30.834Z,88.75
2016-01-27T10:52:45.615Z,88.37
2016-01-27T10:53:14.398Z,88.37
2016-01-27T10:53:28.289Z,88.28
2016-01-27T10:53:42.211Z,88.28
2016-01-27T10:53:56.448Z,88.37
2016-01-27T10:54:24.308Z,88.28
2016-01-27T10:54:53.168Z,87.99
2016-01-27T10:55:07.326Z,87.52
2016-01-27T10:55:21.857Z,87.33
2016-01-27T10:55:36.123Z,87.24
2016-01-27T10:55:50.249Z,86.86
2016-01-27T10:56:04.456Z,86.95
2016-01-27T10:56:18.596Z,86.67
2016-01-27T10:56:33.065Z,86.29
2016-01-27T10:56:47.284Z,86.67
2016-01-27T10:57:01.080Z,86.48
2016-01-27T10:57:15.267Z,86.19
2016-01-27T10:57:29.674Z,86.19
2016-01-27T10:57:43.517Z,86.38
2016-01-27T10:57:57.926Z,86.48
2016-01-27T10:58:11.910Z,86.48
2016-01-27T10:58:25.879Z,86.38
2016-01-27T10:58:39.988Z,86.67
2016-01-27T10:58:54.226Z,86.95
2016-01-27T10:59:07.960Z,86.86
2016-01-27T10:59:22.351Z,86.67
2016-01-27T10:59:36.133Z,86.29
2016-01-27T10:59:50.023Z,86.48
2016-01-27T11:00:03.792Z,86.48
2016-01-27T11:00:17.886Z,86.38
2016-01-27T11:00:31.745Z,86.67
2016-01-27T11:00:45.636Z,87.24
2016-01-27T11:01:00.123Z,86.67
2016-01-27T11:01:14.436Z,87.14
2016-01-27T11:01:42.545Z,87.52
2016-01-27T11:01:56.860Z,87.05
2016-01-27T11:02:10.828Z,87.24
2016-01-27T11:02:25.188Z,86.95
2016-01-27T11:02:39.203Z,86.95
2016-01-27T11:02:53.625Z,87.05
2016-01-27T11:03:08.316Z,86.76
2016-01-27T11:03:22.582Z,86.86
2016-01-27T11:04:07.788Z,86.19
2016-01-27T11:04:21.773Z,86.01
2016-01-27T11:04:35.835Z,85.91
2016-01-27T11:05:17.197Z,85.44
2016-01-27T11:05:31.478Z,85.25
2016-01-27T11:05:45.400Z,85.25
2016-01-27T11:05:59.684Z,84.69
2016-01-27T11:06:14.028Z,85.06
2016-01-27T11:06:28.325Z,84.22
2016-01-27T11:06:42.278Z,84.5
2016-01-27T11:06:57.390Z,84.73
2016-01-27T11:07:14.515Z,84.54
2016-01-27T11:07:28.953Z,84.82
2016-01-27T11:07:43.515Z,84.82
2016-01-27T11:07:57.830Z,84.92
2016-01-27T11:08:11.798Z,84.45
2016-01-27T11:08:26.033Z,84.73
2016-01-27T11:08:39.830Z,84.73
2016-01-27T11:09:22.302Z,84.07
2016-01-27T11:09:36.693Z,84.16
2016-01-27T11:09:50.849Z,84.16
2016-01-27T11:10:05.055Z,84.26
2016-01-27T11:10:19.696Z,84.26
2016-01-27T11:10:33.462Z,83.97
2016-01-27T11:10:47.572Z,83.59
2016-01-27T11:11:01.880Z,83.78
2016-01-27T11:11:15.802Z,83.78
2016-01-27T11:11:30.396Z,83.59
2016-01-27T11:11:44.302Z,83.22
2016-01-27T11:11:58.341Z,83.22
2016-01-27T11:12:12.529Z,83.31
2016-01-27T11:12:26.701Z,82.84
2016-01-27T11:12:41.357Z,82.56
2016-01-27T11:12:55.443Z,82.65
2016-01-27T11:13:09.193Z,82.84
2016-01-27T11:13:23.724Z,82.75
2016-01-27T11:13:37.614Z,82.65
2016-01-27T11:13:54.599Z,83.5
2016-01-27T11:14:08.700Z,83.22
2016-01-27T11:14:22.888Z,83.22
2016-01-27T11:14:36.841Z,83.31
2016-01-27T11:14:50.966Z,83.59
2016-01-27T11:15:05.084Z,83.88
2016-01-27T11:15:19.178Z,83.78
2016-01-27T11:15:33.084Z,83.5
2016-01-27T11:15:47.021Z,83.59
2016-01-27T11:16:04.034Z,83.78
2016-01-27T11:16:18.114Z,83.5
2016-01-27T11:16:32.083Z,83.59
2016-01-27T11:16:45.489Z,83.12
2016-01-27T11:16:59.456Z,83.12
2016-01-27T11:17:13.652Z,83.12
2016-01-27T11:17:27.652Z,83.22
2016-01-27T11:17:41.605Z,83.5
2016-01-27T11:17:55.307Z,83.22
2016-01-27T11:18:09.323Z,82.93
2016-01-27T11:18:23.620Z,83.12
2016-01-27T11:18:37.823Z,82.84
2016-01-27T11:18:51.839Z,82.56
2016-01-27T11:19:06.088Z,82.84
2016-01-27T11:19:19.931Z,82.65
2016-01-27T11:19:48.322Z,82.37
2016-01-27T11:20:16.352Z,82.18
2016-01-27T11:20:30.399Z,82.18
2016-01-27T11:20:44.133Z,82.18
2016-01-27T11:20:58.509Z,82.37
2016-01-27T11:21:12.259Z,82.56
2016-01-27T11:21:32.728Z,82.56
2016-01-27T11:21:46.697Z,82.75
2016-01-27T11:22:00.495Z,82.93
2016-01-27T11:22:14.557Z,82.65
2016-01-27T11:22:28.385Z,83.12
2016-01-27T11:22:42.339Z,83.12
2016-01-27T11:22:56.558Z,83.22
2016-01-27T11:23:10.824Z,83.22
2016-01-27T11:23:24.746Z,83.22
2016-01-27T11:23:38.921Z,82.84
2016-01-27T11:23:53.577Z,82.46
2016-01-27T11:24:07.547Z,82.84
2016-01-27T11:24:21.344Z,82.84
2016-01-27T11:24:38.109Z,82.65
2016-01-27T11:24:51.906Z,82.37
2016-01-27T11:25:06.110Z,82.09
2016-01-27T11:25:48.245Z,82.28
2016-01-27T11:26:02.716Z,82.18
2016-01-27T11:26:16.434Z,82.56
2016-01-27T11:26:30.231Z,82.56
2016-01-27T11:26:44.294Z,82.28
2016-01-27T11:26:58.218Z,82.37
2016-01-27T11:27:12.421Z,82.18
2016-01-27T11:27:26.312Z,81.8
2016-01-27T11:27:40.031Z,81.71
2016-01-27T11:27:54.547Z,81.71
2016-01-27T11:28:08.722Z,81.71
2016-01-27T11:28:23.472Z,81.9
2016-01-27T11:28:37.425Z,81.8
2016-01-27T11:28:51.222Z,81.61
2016-01-27T11:29:08.224Z,82.09
2016-01-27T11:29:21.192Z,81.71
2016-01-27T11:29:35.317Z,81.8
2016-01-27T11:29:49.177Z,81.61
2016-01-27T11:30:03.007Z,81.33
2016-01-27T11:30:16.991Z,81.23
2016-01-27T11:30:31.132Z,81.04
2016-01-27T11:30:45.601Z,81.42
2016-01-27T11:30:59.807Z,81.42
2016-01-27T11:31:13.916Z,81.04
2016-01-27T11:31:28.166Z,80.85
2016-01-27T11:31:42.135Z,80.57
2016-01-27T11:31:56.278Z,80.66
2016-01-27T11:32:10.122Z,80.95
2016-01-27T11:32:24.075Z,80.38
2016-01-27T11:32:38.075Z,80.29
2016-01-27T11:32:51.263Z,80.19
2016-01-27T11:33:05.593Z,80.57
2016-01-27T11:33:22.405Z,80.29
2016-01-27T11:33:36.515Z,80.19
2016-01-27T11:33:50.327Z,80.38
2016-01-27T11:34:10.173Z,80.57
2016-01-27T11:34:24.439Z,80.38
2016-01-27T11:34:38.626Z,80.38
2016-01-27T11:34:52.551Z,80.19
2016-01-27T11:35:06.445Z,80.48
2016-01-27T11:35:20.570Z,80.66
2016-01-27T11:35:34.492Z,81.14
2016-01-27T11:35:48.445Z,80.66
2016-01-27T11:36:02.416Z,80.66
2016-01-27T11:36:15.541Z,80.85
2016-01-27T11:36:29.635Z,80.76
2016-01-27T11:36:43.823Z,80.66
2016-01-27T11:36:58.356Z,80.48
2016-01-27T11:37:12.231Z,81.14
2016-01-27T11:37:40.309Z,80.66
2016-01-27T11:37:57.467Z,80.66
2016-01-27T11:38:10.608Z,80.57
2016-01-27T11:38:24.922Z,80.48
2016-01-27T11:38:39.141Z,80.95
2016-01-27T11:38:52.954Z,81.23
2016-01-27T11:39:07.239Z,80.95
2016-01-27T11:39:21.270Z,81.33
2016-01-27T11:39:38.301Z,81.33
2016-01-27T11:39:52.379Z,81.33
2016-01-27T11:40:06.272Z,81.23
2016-01-27T11:40:20.367Z,81.23
2016-01-27T11:40:34.711Z,81.42
2016-01-27T11:41:03.307Z,81.23
2016-01-27T11:41:20.120Z,81.71
2016-01-27T11:41:33.932Z,81.52
2016-01-27T11:41:48.135Z,81.33
2016-01-27T11:42:02.044Z,81.33
2016-01-27T11:42:16.031Z,81.9
2016-01-27T11:42:29.750Z,81.9
2016-01-27T11:42:43.734Z,81.61
2016-01-27T11:42:57.456Z,81.71
2016-01-27T11:43:11.393Z,81.61
2016-01-27T11:43:25.362Z,82.09
2016-01-27T11:43:39.362Z,82.37
2016-01-27T11:43:53.362Z,82.28
2016-01-27T11:44:07.396Z,81.52
2016-01-27T11:44:24.287Z,81.71
2016-01-27T11:44:38.209Z,81.61
2016-01-27T11:44:51.490Z,81.8
2016-01-27T11:45:05.258Z,82.09
2016-01-27T11:45:19.633Z,81.8
2016-01-27T11:45:37.180Z,81.71
2016-01-27T11:46:05.216Z,81.42
2016-01-27T11:46:19.247Z,81.52
2016-01-27T11:46:32.981Z,81.99
2016-01-27T11:46:47.466Z,81.71
2016-01-27T11:47:01.766Z,81.33
2016-01-27T11:47:15.953Z,81.33
2016-01-27T11:47:30.391Z,81.33
2016-01-27T11:47:44.578Z,81.33
2016-01-27T11:47:58.674Z,81.33
2016-01-27T11:48:12.471Z,81.14
2016-01-27T11:48:26.455Z,81.33
2016-01-27T11:48:40.346Z,81.71
2016-01-27T11:48:54.377Z,81.61
2016-01-27T11:49:08.427Z,81.8
2016-01-27T11:49:22.411Z,81.61
2016-01-27T11:49:36.256Z,81.52
2016-01-27T11:49:50.756Z,81.61
2016-01-27T11:50:04.665Z,81.71
2016-01-27T11:50:18.915Z,81.8
2016-01-27T11:50:33.947Z,81.71
2016-01-27T11:50:47.853Z,81.71
2016-01-27T11:51:02.121Z,81.8
2016-01-27T11:51:18.934Z,81.61
2016-01-27T11:51:33.121Z,81.9
2016-01-27T11:51:46.887Z,82.09
2016-01-27T11:52:00.890Z,81.61
2016-01-27T11:52:14.624Z,81.52
2016-01-27T11:52:28.406Z,81.61
2016-01-27T11:52:45.515Z,81.8
2016-01-27T11:52:59.720Z,81.61
2016-01-27T11:53:13.660Z,81.71
2016-01-27T11:53:27.394Z,81.71
2016-01-27T11:53:41.285Z,81.61
2016-01-27T11:53:55.363Z,81.52
2016-01-27T11:54:09.552Z,81.8
2016-01-27T11:54:24.084Z,81.9
2016-01-27T11:54:37.834Z,81.8
2016-01-27T11:54:52.271Z,81.33
2016-01-27T11:55:06.587Z,81.23
2016-01-27T11:55:20.602Z,81.52
2016-01-27T11:55:34.133Z,81.42
2016-01-27T11:55:49.009Z,81.33
2016-01-27T11:56:03.115Z,81.42
2016-01-27T11:56:17.224Z,81.14
2016-01-27T11:56:30.568Z,81.23
2016-01-27T11:56:44.662Z,81.52
2016-01-27T11:56:59.509Z,81.8
2016-01-27T11:57:13.524Z,81.9
2016-01-27T11:57:27.462Z,81.61
2016-01-27T11:57:55.915Z,81.8
2016-01-27T11:58:09.855Z,81.71
2016-01-27T11:58:24.105Z,81.42
2016-01-27T11:58:38.183Z,81.23
2016-01-27T11:58:52.183Z,81.42
2016-01-27T11:59:06.702Z,81.9
2016-01-27T11:59:21.374Z,81.61
2016-01-27T11:59:35.686Z,81.52
2016-01-27T11:59:49.265Z,81.8
2016-01-27T12:00:03.188Z,81.52
2016-01-27T12:00:17.329Z,81.99
2016-01-27T12:00:31.173Z,81.9
2016-01-27T12:00:44.313Z,81.8
2016-01-27T12:00:57.973Z,81.9
2016-01-27T12:01:12.379Z,81.33
2016-01-27T12:01:27.004Z,81.42
2016-01-27T12:01:41.020Z,81.42
2016-01-27T12:01:55.066Z,81.33
2016-01-27T12:02:09.022Z,81.33